Alto Pass, Illinois
Current Conditions -  °F | °C
As of 2:52 PM on Thursday 18 Dec 2014 (Local Time) from KMDH Reporting Station
Haze Haze  
Wind Chill: 34°   Ceiling: 1000
Heat Index: 34°   Visibility: 6mi
Dew Point: 30°   Wind: 3mph
Humidity: 85%   Direction: 100°E
Pressure: 30.23"   Gusts: NA
Location:  37.57°N, 89.32°W
Report Text: KMDH 182052Z 10003KT 6SM BR OVC010 01/M01 A3023 RMK AO2 SLP241 T00111011 55011
Loading
Personal Weather Stations






























Interactive Weather Map New forecast layout! Learn more

10-Day Weather Forecast

Advertisements
Track Severe Weather on mobile